Time;durP1;ratioP1;P1;durP2;ratioP2;P2;SDS_P1;SDS_P2;PMS_P1;PMS_P2;Temp;Humidity;BMP_temperature;BMP_pressure;BME280_temperature;BME280_humidity;BME280_pressure;Samples;Min_cycle;Max_cycle;Signal;HPM_P1;HPM_P2
2023/04/14 00:02:23;;;;;;;4.23;1.60;;;;;;;;;;5021580;28;20200;-63
2023/04/14 00:04:52;;;;;;;5.83;1.80;;;;;;;;;;5021835;28;20205;-63
2023/04/14 00:07:19;;;;;;;7.10;1.93;;;;;;;;;;5024651;28;20204;-63
2023/04/14 00:09:46;;;;;;;4.17;2.13;;;;;;;;;;5026402;28;20211;-63
2023/04/14 00:12:14;;;;;;;5.23;2.10;;;;;;;;;;5023907;28;20197;-64
2023/04/14 00:14:43;;;;;;;5.97;2.10;;;;;;;;;;5022761;28;20223;-62
2023/04/14 00:17:10;;;;;;;6.87;1.90;;;;;;;;;;5025445;28;20205;-63
2023/04/14 00:19:37;;;;;;;3.23;1.60;;;;;;;;;;5031503;28;20216;-63
2023/04/14 00:22:04;;;;;;;4.57;2.00;;;;;;;;;;5021472;28;20204;-63
2023/04/14 00:24:31;;;;;;;7.20;2.10;;;;;;;;;;5022939;28;20232;-63
2023/04/14 00:26:58;;;;;;;4.73;2.03;;;;;;;;;;5026308;28;20211;-63
2023/04/14 00:29:27;;;;;;;6.47;2.30;;;;;;;;;;5023439;28;20228;-63
2023/04/14 00:31:54;;;;;;;3.20;1.83;;;;;;;;;;5025256;28;20205;-63
2023/04/14 00:34:21;;;;;;;4.77;1.70;;;;;;;;;;5024338;28;20346;-63
2023/04/14 00:36:48;;;;;;;9.43;2.83;;;;;;;;;;5022399;28;20307;-63
2023/04/14 00:39:15;;;;;;;6.83;2.73;;;;;;;;;;5022446;28;20201;-63
2023/04/14 00:41:42;;;;;;;5.30;2.70;;;;;;;;;;5022419;28;20200;-62
2023/04/14 00:44:09;;;;;;;5.53;2.73;;;;;;;;;;5028346;28;20196;-63
2023/04/14 00:46:40;;;;;;;4.87;2.70;;;;;;;;;;5027567;28;20231;-63
2023/04/14 00:49:07;;;;;;;3.57;2.53;;;;;;;;;;5025836;28;20235;-63
2023/04/14 00:51:35;;;;;;;6.83;2.60;;;;;;;;;;5028985;28;20208;-63
2023/04/14 00:54:03;;;;;;;7.80;2.70;;;;;;;;;;5024208;28;20231;-63
2023/04/14 00:56:30;;;;;;;5.90;2.70;;;;;;;;;;5025439;28;20211;-63
2023/04/14 00:58:59;;;;;;;4.17;2.30;;;;;;;;;;5025280;28;20215;-63
2023/04/14 01:01:28;;;;;;;7.83;2.90;;;;;;;;;;5025552;28;20228;-73
2023/04/14 01:03:57;;;;;;;4.60;2.10;;;;;;;;;;5024891;28;20212;-73
2023/04/14 01:06:26;;;;;;;5.47;2.10;;;;;;;;;;5018520;28;20204;-73
2023/04/14 01:08:53;;;;;;;3.50;2.30;;;;;;;;;;5027040;28;20209;-73
2023/04/14 01:11:26;;;;;;;6.33;2.20;;;;;;;;;;5020333;28;20196;-73
2023/04/14 01:13:59;;;;;;;4.53;2.00;;;;;;;;;;5023421;28;20220;-73
2023/04/14 01:16:29;;;;;;;5.00;1.90;;;;;;;;;;5025036;28;20209;-74
2023/04/14 01:19:01;;;;;;;3.30;2.13;;;;;;;;;;5021126;28;20215;-73
2023/04/14 01:21:31;;;;;;;3.57;2.00;;;;;;;;;;5026370;28;20200;-74
2023/04/14 01:24:13;;;;;;;3.30;2.07;;;;;;;;;;5022665;28;20220;-73
2023/04/14 01:26:42;;;;;;;12.90;6.17;;;;;;;;;;5016920;28;20200;-73
2023/04/14 01:29:26;;;;;;;14.93;7.37;;;;;;;;;;5019709;28;20242;-74
2023/04/14 01:31:59;;;;;;;19.73;9.47;;;;;;;;;;5015620;28;20274;-73
2023/04/14 01:34:32;;;;;;;28.30;13.83;;;;;;;;;;5019699;28;20224;-73
2023/04/14 01:37:02;;;;;;;19.40;11.23;;;;;;;;;;5018967;28;20201;-73
2023/04/14 01:39:31;;;;;;;19.13;9.30;;;;;;;;;;5021969;28;20208;-73
2023/04/14 01:41:59;;;;;;;10.77;5.40;;;;;;;;;;5015230;28;20217;-74
2023/04/14 01:44:26;;;;;;;7.30;3.27;;;;;;;;;;5020162;28;20196;-73
2023/04/14 01:46:56;;;;;;;5.80;3.00;;;;;;;;;;5021966;28;20215;-73
2023/04/14 01:49:25;;;;;;;4.13;2.90;;;;;;;;;;5020138;28;20196;-73
2023/04/14 01:51:53;;;;;;;8.57;3.23;;;;;;;;;;5023324;28;20215;-73
2023/04/14 01:54:21;;;;;;;5.73;2.80;;;;;;;;;;5019020;28;20223;-73
2023/04/14 01:56:49;;;;;;;6.73;3.30;;;;;;;;;;5020586;28;20200;-73
2023/04/14 01:59:17;;;;;;;7.00;3.50;;;;;;;;;;5017821;28;20213;-73
2023/04/14 02:01:44;;;;;;;7.33;3.33;;;;;;;;;;5016886;28;20232;-73
2023/04/14 02:04:12;;;;;;;6.07;2.80;;;;;;;;;;5015255;28;20259;-74
2023/04/14 02:06:40;;;;;;;4.80;2.70;;;;;;;;;;5015233;28;20205;-73
2023/04/14 02:09:11;;;;;;;5.10;2.40;;;;;;;;;;5015798;28;20211;-73
2023/04/14 02:11:38;;;;;;;4.93;2.37;;;;;;;;;;5019348;28;20212;-73
2023/04/14 02:14:06;;;;;;;5.10;2.10;;;;;;;;;;5017958;28;20231;-73
2023/04/14 02:16:34;;;;;;;4.37;2.20;;;;;;;;;;5015095;28;20252;-73
2023/04/14 02:19:03;;;;;;;5.67;2.20;;;;;;;;;;5018272;28;20232;-73
2023/04/14 02:21:31;;;;;;;5.00;2.20;;;;;;;;;;5018112;28;20208;-73
2023/04/14 02:24:00;;;;;;;9.30;1.70;;;;;;;;;;5014784;28;20287;-73
2023/04/14 02:26:29;;;;;;;3.80;1.70;;;;;;;;;;5018287;28;20208;-74
2023/04/14 02:29:01;;;;;;;4.57;1.80;;;;;;;;;;5016647;28;20246;-73
2023/04/14 02:31:30;;;;;;;7.30;2.63;;;;;;;;;;5016002;28;20251;-73
2023/04/14 02:33:59;;;;;;;2.83;1.80;;;;;;;;;;5020751;28;20215;-74
2023/04/14 02:36:31;;;;;;;8.17;2.27;;;;;;;;;;5022768;28;20212;-73
2023/04/14 02:39:01;;;;;;;3.13;1.60;;;;;;;;;;5024058;28;20295;-74
2023/04/14 02:41:29;;;;;;;3.50;1.73;;;;;;;;;;5024246;28;20208;-74
2023/04/14 02:44:00;;;;;;;5.23;1.77;;;;;;;;;;5023944;28;20218;-73
2023/04/14 02:46:28;;;;;;;3.97;1.67;;;;;;;;;;5021711;28;20200;-73
2023/04/14 02:48:55;;;;;;;3.83;1.63;;;;;;;;;;5018665;28;20203;-73
2023/04/14 02:51:23;;;;;;;2.83;1.73;;;;;;;;;;5017402;28;20208;-74
2023/04/14 02:53:50;;;;;;;3.53;1.80;;;;;;;;;;5019741;28;20290;-74
2023/04/14 02:56:19;;;;;;;1.87;1.23;;;;;;;;;;5016112;28;20228;-74
2023/04/14 02:58:47;;;;;;;3.37;1.47;;;;;;;;;;5016616;28;20196;-73
2023/04/14 03:01:15;;;;;;;2.50;1.40;;;;;;;;;;5020243;28;20200;-73
2023/04/14 03:03:43;;;;;;;3.63;1.87;;;;;;;;;;5020006;28;20220;-74
2023/04/14 03:06:10;;;;;;;3.47;1.70;;;;;;;;;;5023120;28;20200;-74
2023/04/14 03:08:38;;;;;;;4.47;1.83;;;;;;;;;;5024233;28;20200;-73
2023/04/14 03:11:05;;;;;;;4.40;1.70;;;;;;;;;;5020725;28;20211;-74
2023/04/14 03:13:34;;;;;;;3.27;1.43;;;;;;;;;;5021460;28;20200;-73
2023/04/14 03:16:02;;;;;;;4.40;1.77;;;;;;;;;;5017775;28;20236;-73
2023/04/14 03:18:30;;;;;;;2.00;1.37;;;;;;;;;;5024008;28;20295;-74
2023/04/14 03:20:59;;;;;;;3.30;1.83;;;;;;;;;;5023447;28;20200;-75
2023/04/14 03:23:28;;;;;;;4.10;1.77;;;;;;;;;;5017735;28;20215;-73
2023/04/14 03:25:55;;;;;;;3.40;1.90;;;;;;;;;;5018275;28;20219;-73
2023/04/14 03:28:24;;;;;;;3.73;1.87;;;;;;;;;;5019137;28;20240;-73
2023/04/14 03:30:53;;;;;;;3.33;1.70;;;;;;;;;;5023935;28;20231;-73
2023/04/14 03:33:23;;;;;;;5.47;1.90;;;;;;;;;;5025128;28;20200;-74
2023/04/14 03:35:50;;;;;;;6.90;1.70;;;;;;;;;;5025587;28;20231;-73
2023/04/14 03:38:18;;;;;;;3.67;1.40;;;;;;;;;;5023229;28;20200;-73
2023/04/14 03:40:47;;;;;;;3.70;1.60;;;;;;;;;;5025861;28;20204;-74
2023/04/14 03:43:18;;;;;;;2.80;1.40;;;;;;;;;;5025283;28;20204;-74
2023/04/14 03:45:47;;;;;;;4.07;1.63;;;;;;;;;;5026488;28;20286;-73
2023/04/14 03:48:17;;;;;;;2.73;1.50;;;;;;;;;;5026538;28;20258;-73
2023/04/14 03:50:45;;;;;;;3.27;1.40;;;;;;;;;;5019341;28;20207;-73
2023/04/14 03:53:13;;;;;;;4.30;1.50;;;;;;;;;;5024311;28;20227;-73
2023/04/14 03:55:42;;;;;;;5.17;1.63;;;;;;;;;;5021005;28;20239;-74
2023/04/14 03:58:11;;;;;;;2.90;1.30;;;;;;;;;;5025971;28;20211;-73
2023/04/14 04:00:38;;;;;;;6.00;1.50;;;;;;;;;;5025784;28;20211;-74
2023/04/14 04:03:06;;;;;;;3.97;1.50;;;;;;;;;;5023101;28;20205;-73
2023/04/14 04:05:34;;;;;;;3.27;1.70;;;;;;;;;;5024085;28;20200;-74
2023/04/14 04:08:04;;;;;;;4.87;1.60;;;;;;;;;;5023171;28;20211;-73
2023/04/14 04:10:33;;;;;;;3.60;1.40;;;;;;;;;;5026284;28;20204;-73
2023/04/14 04:13:01;;;;;;;4.33;1.93;;;;;;;;;;5028271;28;20258;-74
2023/04/14 04:15:29;;;;;;;7.30;1.87;;;;;;;;;;5028502;28;20224;-73
2023/04/14 04:17:58;;;;;;;3.83;2.00;;;;;;;;;;5027094;28;20211;-73
2023/04/14 04:20:25;;;;;;;4.07;2.13;;;;;;;;;;5024210;28;20211;-74
2023/04/14 04:22:56;;;;;;;3.97;1.97;;;;;;;;;;5024819;28;20205;-73
2023/04/14 04:25:23;;;;;;;4.97;2.00;;;;;;;;;;5023210;28;20212;-73
2023/04/14 04:27:50;;;;;;;4.27;2.07;;;;;;;;;;5025851;28;20223;-73
2023/04/14 04:30:18;;;;;;;3.20;2.27;;;;;;;;;;5002864;28;20205;-73
2023/04/14 04:32:46;;;;;;;5.20;2.10;;;;;;;;;;5004818;28;20205;-73
2023/04/14 04:35:13;;;;;;;5.30;2.30;;;;;;;;;;5004481;28;20312;-73
2023/04/14 04:37:42;;;;;;;28.13;17.03;;;;;;;;;;5003124;28;20212;-73
2023/04/14 04:40:12;;;;;;;29.03;17.13;;;;;;;;;;4998754;28;20209;-73
2023/04/14 04:42:41;;;;;;;23.30;14.40;;;;;;;;;;4996792;28;20232;-73
2023/04/14 04:45:09;;;;;;;14.50;9.30;;;;;;;;;;5004027;28;20213;-73
2023/04/14 04:47:36;;;;;;;9.63;5.57;;;;;;;;;;5009919;28;20209;-73
2023/04/14 04:50:03;;;;;;;4.80;3.10;;;;;;;;;;5001583;28;20212;-73
2023/04/14 04:52:30;;;;;;;4.20;2.40;;;;;;;;;;5000577;28;20217;-73
2023/04/14 04:54:57;;;;;;;5.33;2.70;;;;;;;;;;5004695;28;20225;-73
2023/04/14 04:57:26;;;;;;;3.57;2.10;;;;;;;;;;5008919;28;20209;-73
2023/04/14 04:59:53;;;;;;;4.57;2.33;;;;;;;;;;5002263;28;20267;-73
2023/04/14 05:02:20;;;;;;;2.80;1.90;;;;;;;;;;5004891;28;20209;-73
2023/04/14 05:04:48;;;;;;;6.40;2.20;;;;;;;;;;5005857;28;20224;-73
2023/04/14 05:07:15;;;;;;;3.60;1.90;;;;;;;;;;5005902;28;20202;-73
2023/04/14 05:09:42;;;;;;;2.23;1.70;;;;;;;;;;5007388;28;20252;-73
2023/04/14 05:12:09;;;;;;;3.37;1.90;;;;;;;;;;5008258;28;20205;-73
2023/04/14 05:14:38;;;;;;;3.63;2.10;;;;;;;;;;4999545;28;20209;-74
2023/04/14 05:17:05;;;;;;;2.70;1.80;;;;;;;;;;4997487;28;20209;-74
2023/04/14 05:19:32;;;;;;;2.83;1.70;;;;;;;;;;4999023;28;20212;-73
2023/04/14 05:21:59;;;;;;;3.07;1.73;;;;;;;;;;5004099;28;20213;-73
2023/04/14 05:24:26;;;;;;;3.80;1.70;;;;;;;;;;4999306;28;20232;-73
2023/04/14 05:26:53;;;;;;;3.07;1.60;;;;;;;;;;5001213;28;20220;-73
2023/04/14 05:29:21;;;;;;;3.83;1.70;;;;;;;;;;5018506;28;20247;-73
2023/04/14 05:31:49;;;;;;;3.97;1.90;;;;;;;;;;5024326;28;20215;-73
2023/04/14 05:34:16;;;;;;;3.60;1.97;;;;;;;;;;5022647;28;20205;-73
2023/04/14 05:36:43;;;;;;;4.50;2.07;;;;;;;;;;5020810;28;20228;-73
2023/04/14 05:39:12;;;;;;;3.80;2.20;;;;;;;;;;5022635;28;20209;-73
2023/04/14 05:41:39;;;;;;;3.80;2.20;;;;;;;;;;5023670;28;20300;-73
2023/04/14 05:44:06;;;;;;;3.87;2.23;;;;;;;;;;5018786;28;20209;-73
2023/04/14 05:46:34;;;;;;;3.70;1.90;;;;;;;;;;5022994;28;20205;-73
2023/04/14 05:49:03;;;;;;;5.07;2.40;;;;;;;;;;5021701;28;20216;-73
2023/04/14 05:51:31;;;;;;;5.27;3.10;;;;;;;;;;5023263;28;20201;-74
2023/04/14 05:53:58;;;;;;;5.40;2.93;;;;;;;;;;5026609;28;20223;-73
2023/04/14 05:56:25;;;;;;;5.47;2.50;;;;;;;;;;5019919;28;20220;-73
2023/04/14 05:58:54;;;;;;;3.87;2.30;;;;;;;;;;5023220;28;20201;-73
2023/04/14 06:01:21;;;;;;;6.30;2.93;;;;;;;;;;5021808;28;20209;-73
2023/04/14 06:03:48;;;;;;;5.83;3.03;;;;;;;;;;5019402;28;20212;-74
2023/04/14 06:06:18;;;;;;;5.27;2.60;;;;;;;;;;5022139;28;20196;-73
2023/04/14 06:08:45;;;;;;;5.13;2.40;;;;;;;;;;5022832;28;20290;-74
2023/04/14 06:11:13;;;;;;;3.30;2.40;;;;;;;;;;5024471;28;20211;-73
2023/04/14 06:13:40;;;;;;;3.43;2.10;;;;;;;;;;5012710;28;20290;-73
2023/04/14 06:16:07;;;;;;;5.10;2.63;;;;;;;;;;5021828;28;20220;-73
2023/04/14 06:18:35;;;;;;;6.83;2.43;;;;;;;;;;5019025;28;20212;-73
2023/04/14 06:21:02;;;;;;;5.87;2.30;;;;;;;;;;5015621;28;20208;-73
2023/04/14 06:23:31;;;;;;;6.27;3.27;;;;;;;;;;5021030;28;20210;-73
2023/04/14 06:25:58;;;;;;;6.37;4.10;;;;;;;;;;5022001;28;20192;-73
2023/04/14 06:28:25;;;;;;;5.13;3.20;;;;;;;;;;5021179;28;20255;-73
2023/04/14 06:30:52;;;;;;;4.17;2.67;;;;;;;;;;5021796;28;20196;-73
2023/04/14 06:33:19;;;;;;;4.13;2.43;;;;;;;;;;5023239;28;20208;-74
2023/04/14 06:35:47;;;;;;;6.33;2.70;;;;;;;;;;5020822;28;20228;-74
2023/04/14 06:38:14;;;;;;;3.50;2.03;;;;;;;;;;5019689;28;20211;-73
2023/04/14 06:40:42;;;;;;;5.97;2.30;;;;;;;;;;5015548;28;20211;-74
2023/04/14 06:43:11;;;;;;;4.87;2.60;;;;;;;;;;5020361;28;20304;-73
2023/04/14 06:45:38;;;;;;;5.53;2.73;;;;;;;;;;5021350;28;20196;-74
2023/04/14 06:48:06;;;;;;;3.00;2.10;;;;;;;;;;5020807;28;20213;-73
2023/04/14 06:50:33;;;;;;;2.93;2.10;;;;;;;;;;5019380;28;20208;-73
2023/04/14 06:53:00;;;;;;;3.57;1.90;;;;;;;;;;5022464;28;20204;-73
2023/04/14 06:55:28;;;;;;;4.80;2.07;;;;;;;;;;5020906;28;20212;-73
2023/04/14 06:57:56;;;;;;;5.63;2.37;;;;;;;;;;5025004;28;20200;-73
2023/04/14 07:00:24;;;;;;;3.27;2.03;;;;;;;;;;5020712;28;20212;-73
2023/04/14 07:02:54;;;;;;;3.53;2.13;;;;;;;;;;5018121;28;20208;-73
2023/04/14 07:05:22;;;;;;;3.80;2.00;;;;;;;;;;5018129;28;20211;-73
2023/04/14 07:07:50;;;;;;;3.67;2.13;;;;;;;;;;5020439;28;20207;-72
2023/04/14 07:10:18;;;;;;;2.83;1.97;;;;;;;;;;5020492;28;20209;-73
2023/04/14 07:12:48;;;;;;;4.30;1.90;;;;;;;;;;5019612;28;20270;-72
2023/04/14 07:15:22;;;;;;;5.17;2.13;;;;;;;;;;5016685;28;20205;-73
2023/04/14 07:17:49;;;;;;;4.10;1.83;;;;;;;;;;5022240;28;20208;-72
2023/04/14 07:20:18;;;;;;;4.20;2.00;;;;;;;;;;5022208;28;20207;-72
2023/04/14 07:22:47;;;;;;;2.37;1.87;;;;;;;;;;5019116;28;20217;-73
2023/04/14 07:25:15;;;;;;;5.23;1.83;;;;;;;;;;5022298;28;20200;-72
2023/04/14 07:27:42;;;;;;;6.27;2.87;;;;;;;;;;5026982;28;20287;-73
2023/04/14 07:30:12;;;;;;;5.00;2.27;;;;;;;;;;5024135;28;20232;-72
2023/04/14 07:32:41;;;;;;;3.50;1.87;;;;;;;;;;5019692;28;20204;-72
2023/04/14 07:35:10;;;;;;;6.30;2.03;;;;;;;;;;5019452;28;20204;-72
2023/04/14 07:37:38;;;;;;;4.20;1.60;;;;;;;;;;5017261;28;20232;-72
2023/04/14 07:40:08;;;;;;;5.20;1.80;;;;;;;;;;5016795;28;20211;-72
2023/04/14 07:42:38;;;;;;;2.03;1.40;;;;;;;;;;5023152;28;20204;-73
2023/04/14 07:45:08;;;;;;;5.80;1.90;;;;;;;;;;5024120;28;20208;-71
2023/04/14 07:47:35;;;;;;;4.27;1.80;;;;;;;;;;5021467;28;20205;-72
2023/04/14 07:50:03;;;;;;;3.87;1.70;;;;;;;;;;5020784;28;20212;-71
2023/04/14 07:52:30;;;;;;;4.13;1.80;;;;;;;;;;5019284;28;20212;-71
2023/04/14 07:54:58;;;;;;;4.10;1.77;;;;;;;;;;5025887;28;20295;-71
2023/04/14 07:57:25;;;;;;;2.23;1.60;;;;;;;;;;5022890;28;20228;-71
2023/04/14 07:59:52;;;;;;;4.30;1.90;;;;;;;;;;5018522;28;20214;-71
2023/04/14 08:02:19;;;;;;;3.90;1.47;;;;;;;;;;5024781;28;20227;-71
2023/04/14 08:04:46;;;;;;;4.20;1.90;;;;;;;;;;5019031;28;20208;-71
2023/04/14 08:07:15;;;;;;;3.73;1.50;;;;;;;;;;5019003;28;20227;-72
2023/04/14 08:09:42;;;;;;;2.97;1.70;;;;;;;;;;5018689;28;20210;-71
2023/04/14 08:12:09;;;;;;;5.90;1.90;;;;;;;;;;5024658;28;20197;-71
2023/04/14 08:14:36;;;;;;;4.70;1.67;;;;;;;;;;5021316;28;20205;-71
2023/04/14 08:17:03;;;;;;;3.63;1.60;;;;;;;;;;5024156;28;20219;-71
2023/04/14 08:19:32;;;;;;;5.20;1.70;;;;;;;;;;5022371;28;20204;-70
2023/04/14 08:22:00;;;;;;;4.30;1.47;;;;;;;;;;5021832;28;20197;-71
2023/04/14 08:24:28;;;;;;;4.77;1.73;;;;;;;;;;5021022;28;20204;-71
2023/04/14 08:26:56;;;;;;;5.50;1.50;;;;;;;;;;5018429;28;20196;-71
2023/04/14 08:29:23;;;;;;;2.57;1.30;;;;;;;;;;5023484;28;20319;-71
2023/04/14 08:31:50;;;;;;;5.40;1.63;;;;;;;;;;5023211;28;20203;-71
2023/04/14 08:34:17;;;;;;;5.60;1.63;;;;;;;;;;5027945;28;20205;-71
2023/04/14 08:36:46;;;;;;;4.50;1.37;;;;;;;;;;5022075;28;20231;-71
2023/04/14 08:39:14;;;;;;;2.97;1.53;;;;;;;;;;5021687;28;20201;-71
2023/04/14 08:41:47;;;;;;;3.70;1.53;;;;;;;;;;5025393;28;20233;-71
2023/04/14 08:44:16;;;;;;;4.70;1.83;;;;;;;;;;5021624;28;20216;-72
2023/04/14 08:46:44;;;;;;;5.53;1.60;;;;;;;;;;5023913;28;20200;-71
2023/04/14 08:49:16;;;;;;;3.70;1.60;;;;;;;;;;5019778;28;20341;-71
2023/04/14 08:51:44;;;;;;;5.13;1.37;;;;;;;;;;5023711;28;20223;-71
2023/04/14 08:54:12;;;;;;;4.17;1.60;;;;;;;;;;5024993;28;20205;-71
2023/04/14 08:56:40;;;;;;;4.20;1.60;;;;;;;;;;5019214;28;20235;-71
2023/04/14 08:59:09;;;;;;;3.93;1.30;;;;;;;;;;5025423;28;20220;-71
2023/04/14 09:01:37;;;;;;;4.43;1.40;;;;;;;;;;5019520;28;20201;-71
2023/04/14 09:04:05;;;;;;;3.20;1.20;;;;;;;;;;5027222;28;20204;-71
2023/04/14 09:06:32;;;;;;;3.47;1.53;;;;;;;;;;5022935;28;20212;-71
2023/04/14 09:09:02;;;;;;;2.80;1.30;;;;;;;;;;5025781;28;20205;-71
2023/04/14 09:11:30;;;;;;;3.60;1.50;;;;;;;;;;5014581;28;20267;-71
2023/04/14 09:13:59;;;;;;;4.90;1.77;;;;;;;;;;5026091;28;20226;-71
2023/04/14 09:16:28;;;;;;;2.43;1.30;;;;;;;;;;5021059;28;20319;-71
2023/04/14 09:18:55;;;;;;;3.37;1.37;;;;;;;;;;5022231;28;20216;-71
2023/04/14 09:21:22;;;;;;;3.63;1.43;;;;;;;;;;5023972;28;20208;-71
2023/04/14 09:23:49;;;;;;;6.40;1.70;;;;;;;;;;5019442;28;20207;-70
2023/04/14 09:26:17;;;;;;;2.73;1.53;;;;;;;;;;5017937;28;20209;-70
2023/04/14 09:28:44;;;;;;;3.73;1.60;;;;;;;;;;5021457;28;20315;-71
2023/04/14 09:31:11;;;;;;;4.83;1.57;;;;;;;;;;5022981;28;20207;-70
2023/04/14 09:33:40;;;;;;;2.80;1.50;;;;;;;;;;5025020;28;20212;-71
2023/04/14 09:36:18;;;;;;;3.83;1.40;;;;;;;;;;5018773;28;20211;-71
2023/04/14 09:38:45;;;;;;;4.47;1.80;;;;;;;;;;5023358;28;20200;-71
2023/04/14 09:41:16;;;;;;;4.67;1.93;;;;;;;;;;5026897;28;20205;-71
2023/04/14 09:43:44;;;;;;;4.20;1.77;;;;;;;;;;5021013;28;20209;-71
2023/04/14 09:46:12;;;;;;;6.30;1.80;;;;;;;;;;5024933;28;20215;-70
2023/04/14 09:48:51;;;;;;;4.63;2.17;;;;;;;;;;5025888;28;20212;-70
2023/04/14 09:51:22;;;;;;;4.47;2.07;;;;;;;;;;5017320;28;20207;-70
2023/04/14 09:53:50;;;;;;;5.65;2.20;;;;;;;;;;5019854;28;20267;-70
2023/04/14 09:56:17;;;;;;;2.40;1.57;;;;;;;;;;5025102;28;20212;-70
2023/04/14 09:58:45;;;;;;;3.65;1.80;;;;;;;;;;5015614;28;20201;-70
2023/04/14 10:01:13;;;;;;;3.28;1.85;;;;;;;;;;5020489;28;20262;-70
2023/04/14 10:03:40;;;;;;;4.50;2.13;;;;;;;;;;5019397;28;20205;-70
2023/04/14 10:06:09;;;;;;;3.88;1.92;;;;;;;;;;5021828;28;20273;-70
2023/04/14 10:08:37;;;;;;;4.03;1.55;;;;;;;;;;5023038;28;20223;-70
2023/04/14 10:11:17;;;;;;;5.00;1.80;;;;;;;;;;5023919;28;20208;-70
2023/04/14 10:13:45;;;;;;;4.45;1.60;;;;;;;;;;5021725;28;20209;-70
2023/04/14 10:16:13;;;;;;;2.70;1.35;;;;;;;;;;5024572;28;20204;-70
2023/04/14 10:18:40;;;;;;;4.75;1.95;;;;;;;;;;5018895;28;20232;-70
2023/04/14 10:21:08;;;;;;;4.22;1.48;;;;;;;;;;5025478;28;20208;-70
2023/04/14 10:23:38;;;;;;;2.85;1.42;;;;;;;;;;5020938;28;20215;-70
2023/04/14 10:26:06;;;;;;;3.42;1.58;;;;;;;;;;5023420;28;20228;-70
2023/04/14 10:28:34;;;;;;;3.75;1.67;;;;;;;;;;5019227;28;20236;-68
2023/04/14 10:31:02;;;;;;;5.20;2.20;;;;;;;;;;5020948;28;20204;-70
2023/04/14 10:33:29;;;;;;;5.68;1.70;;;;;;;;;;5020089;28;20217;-70
2023/04/14 10:35:59;;;;;;;3.28;1.50;;;;;;;;;;5018847;28;20228;-70
2023/04/14 10:38:42;;;;;;;3.38;1.85;;;;;;;;;;5018673;28;20224;-70
2023/04/14 10:41:11;;;;;;;3.85;1.73;;;;;;;;;;5013778;28;20215;-70
2023/04/14 10:43:38;;;;;;;5.47;2.33;;;;;;;;;;5017529;28;20222;-69
2023/04/14 10:46:07;;;;;;;6.18;2.10;;;;;;;;;;5013672;28;20205;-70
2023/04/14 10:48:34;;;;;;;5.60;1.98;;;;;;;;;;5023805;28;20205;-69
2023/04/14 10:51:03;;;;;;;4.43;2.15;;;;;;;;;;5023923;28;20224;-69
2023/04/14 10:53:35;;;;;;;5.63;1.90;;;;;;;;;;5025392;28;20258;-69
2023/04/14 10:56:03;;;;;;;4.95;2.00;;;;;;;;;;5024284;28;20257;-70
2023/04/14 10:58:34;;;;;;;3.92;1.88;;;;;;;;;;5019820;28;20224;-69
2023/04/14 11:01:01;;;;;;;4.43;2.13;;;;;;;;;;5025655;28;20208;-69
2023/04/14 11:03:32;;;;;;;5.35;2.10;;;;;;;;;;5021014;28;20207;-69
2023/04/14 11:05:59;;;;;;;5.53;2.20;;;;;;;;;;5019912;28;20199;-69
2023/04/14 11:08:27;;;;;;;5.13;2.20;;;;;;;;;;5020370;28;20196;-70
2023/04/14 11:11:01;;;;;;;3.20;1.80;;;;;;;;;;5017554;28;20204;-69
2023/04/14 11:13:29;;;;;;;7.15;2.28;;;;;;;;;;5021381;28;20199;-69
2023/04/14 11:16:02;;;;;;;3.95;2.15;;;;;;;;;;5017165;28;20208;-69
2023/04/14 11:18:33;;;;;;;6.03;2.22;;;;;;;;;;5022200;28;20224;-69
2023/04/14 11:21:04;;;;;;;4.68;2.15;;;;;;;;;;5013222;28;20216;-69
2023/04/14 11:23:31;;;;;;;4.85;2.00;;;;;;;;;;5016583;28;20233;-69
2023/04/14 11:25:59;;;;;;;5.75;1.83;;;;;;;;;;5014676;28;20204;-69
2023/04/14 11:28:30;;;;;;;4.25;2.05;;;;;;;;;;5017615;28;20238;-70
2023/04/14 11:30:59;;;;;;;5.60;1.77;;;;;;;;;;5014206;28;20216;-69
2023/04/14 11:33:30;;;;;;;4.72;1.70;;;;;;;;;;5019973;28;20211;-69
2023/04/14 11:35:57;;;;;;;3.05;1.65;;;;;;;;;;5018436;28;20231;-70
2023/04/14 11:38:25;;;;;;;4.70;1.70;;;;;;;;;;5020330;28;20211;-70
2023/04/14 11:40:52;;;;;;;3.17;1.60;;;;;;;;;;5019148;28;20205;-69
2023/04/14 11:43:20;;;;;;;2.80;1.45;;;;;;;;;;5020373;28;20208;-69
2023/04/14 11:45:47;;;;;;;7.75;1.85;;;;;;;;;;5019112;28;20204;-69
2023/04/14 11:48:18;;;;;;;2.90;1.30;;;;;;;;;;5023969;28;20204;-69
2023/04/14 11:50:45;;;;;;;2.78;1.38;;;;;;;;;;5023468;28;20298;-69
2023/04/14 11:53:13;;;;;;;3.53;1.73;;;;;;;;;;5021453;28;20201;-69
2023/04/14 11:55:42;;;;;;;4.00;1.52;;;;;;;;;;5016979;28;20215;-69
2023/04/14 11:58:09;;;;;;;4.07;1.58;;;;;;;;;;5022188;28;20220;-69
2023/04/14 12:00:36;;;;;;;2.92;1.20;;;;;;;;;;5015071;28;20197;-69
2023/04/14 12:03:04;;;;;;;4.10;1.40;;;;;;;;;;5022373;28;20204;-69
2023/04/14 12:05:32;;;;;;;3.22;1.30;;;;;;;;;;5024098;28;20213;-69
2023/04/14 12:08:00;;;;;;;4.13;1.60;;;;;;;;;;5019483;28;20207;-69
2023/04/14 12:10:28;;;;;;;4.43;1.38;;;;;;;;;;5024147;28;20207;-69
2023/04/14 12:13:00;;;;;;;3.88;1.30;;;;;;;;;;5022746;28;20236;-69
2023/04/14 12:15:27;;;;;;;2.28;1.25;;;;;;;;;;5021124;28;20204;-68
2023/04/14 12:17:55;;;;;;;3.17;1.20;;;;;;;;;;5020020;28;20224;-68
2023/04/14 12:20:22;;;;;;;3.08;1.20;;;;;;;;;;5023432;28;20208;-70
2023/04/14 12:22:51;;;;;;;3.97;1.17;;;;;;;;;;5023741;28;20208;-69
2023/04/14 12:25:18;;;;;;;2.47;1.23;;;;;;;;;;5021096;28;20204;-69
2023/04/14 12:27:52;;;;;;;2.45;1.10;;;;;;;;;;5020588;28;20204;-69
2023/04/14 12:30:20;;;;;;;2.75;1.23;;;;;;;;;;5020781;28;20233;-70
2023/04/14 12:32:48;;;;;;;2.45;1.00;;;;;;;;;;5019834;28;20208;-69
2023/04/14 12:35:15;;;;;;;4.45;1.33;;;;;;;;;;5027466;28;20243;-69
2023/04/14 12:37:48;;;;;;;2.97;1.30;;;;;;;;;;5021766;28;20259;-69
2023/04/14 12:40:17;;;;;;;2.45;1.20;;;;;;;;;;5021661;28;20219;-70
2023/04/14 12:42:46;;;;;;;2.67;1.20;;;;;;;;;;5028592;28;20208;-70
2023/04/14 12:45:13;;;;;;;1.88;1.10;;;;;;;;;;5023664;28;20212;-69
2023/04/14 12:47:40;;;;;;;1.80;1.08;;;;;;;;;;5021658;28;20213;-69
2023/04/14 12:50:23;;;;;;;2.50;1.23;;;;;;;;;;5022152;28;20204;-70
2023/04/14 12:52:52;;;;;;;3.00;1.00;;;;;;;;;;5024728;28;20212;-69
2023/04/14 12:55:21;;;;;;;3.35;1.10;;;;;;;;;;5020998;28;20211;-69
2023/04/14 12:57:48;;;;;;;3.08;1.25;;;;;;;;;;5019609;28;20227;-69
2023/04/14 13:00:16;;;;;;;1.25;1.00;;;;;;;;;;5017759;28;20218;-69
2023/04/14 13:02:43;;;;;;;3.30;1.13;;;;;;;;;;5013897;28;20208;-70
2023/04/14 13:05:13;;;;;;;2.35;1.20;;;;;;;;;;5016616;28;20201;-61
2023/04/14 13:07:40;;;;;;;2.95;1.30;;;;;;;;;;5015599;28;20205;-61
2023/04/14 13:10:07;;;;;;;3.95;1.35;;;;;;;;;;5018568;28;20205;-61
2023/04/14 13:12:36;;;;;;;4.35;1.05;;;;;;;;;;5020776;28;20200;-61
2023/04/14 13:15:03;;;;;;;1.85;1.20;;;;;;;;;;5019982;28;20196;-61
2023/04/14 13:17:30;;;;;;;2.35;1.13;;;;;;;;;;5019717;28;20208;-61
2023/04/14 13:19:57;;;;;;;2.35;1.17;;;;;;;;;;5018415;28;20210;-61
2023/04/14 13:22:24;;;;;;;2.10;0.93;;;;;;;;;;5019261;28;20209;-62
2023/04/14 13:24:51;;;;;;;2.15;1.10;;;;;;;;;;5032808;28;20219;-63
2023/04/14 13:27:19;;;;;;;4.47;1.30;;;;;;;;;;5020097;28;20200;-63
2023/04/14 13:29:47;;;;;;;6.88;1.95;;;;;;;;;;5023864;28;20239;-62
2023/04/14 13:32:14;;;;;;;2.78;1.30;;;;;;;;;;5027309;28;20207;-62
2023/04/14 13:34:42;;;;;;;2.70;1.42;;;;;;;;;;5020014;28;20231;-63
2023/04/14 13:37:09;;;;;;;2.03;1.17;;;;;;;;;;5018950;28;20200;-63
2023/04/14 13:39:36;;;;;;;1.38;0.95;;;;;;;;;;5022546;28;20348;-64
2023/04/14 13:42:04;;;;;;;2.17;1.20;;;;;;;;;;5020127;28;20239;-63
2023/04/14 13:44:33;;;;;;;4.55;2.30;;;;;;;;;;5029194;28;20196;-63
2023/04/14 13:47:01;;;;;;;5.03;1.40;;;;;;;;;;5019094;28;20270;-62
2023/04/14 13:49:30;;;;;;;1.45;1.10;;;;;;;;;;5020180;28;20284;-63
2023/04/14 13:51:57;;;;;;;4.30;1.27;;;;;;;;;;5016909;28;20227;-62
2023/04/14 13:54:25;;;;;;;3.05;1.08;;;;;;;;;;5019427;28;20209;-62
2023/04/14 13:56:52;;;;;;;2.80;1.10;;;;;;;;;;5021535;28;20287;-62
2023/04/14 13:59:21;;;;;;;2.35;1.00;;;;;;;;;;5022308;28;20228;-62
2023/04/14 14:01:48;;;;;;;2.88;1.10;;;;;;;;;;5026657;28;20215;-62
2023/04/14 14:04:17;;;;;;;2.65;1.42;;;;;;;;;;5025181;28;20196;-63
2023/04/14 14:06:44;;;;;;;2.20;1.60;;;;;;;;;;5032030;28;20204;-63
2023/04/14 14:09:11;;;;;;;1.05;0.95;;;;;;;;;;5028489;28;20223;-62
2023/04/14 14:11:42;;;;;;;3.47;1.00;;;;;;;;;;5030995;28;20212;-63
2023/04/14 14:14:10;;;;;;;3.08;1.02;;;;;;;;;;5020914;28;20203;-63
2023/04/14 14:16:37;;;;;;;2.28;0.90;;;;;;;;;;5026644;28;20205;-62
2023/04/14 14:19:07;;;;;;;1.80;0.90;;;;;;;;;;5027604;28;20247;-62
2023/04/14 14:21:35;;;;;;;1.15;0.73;;;;;;;;;;5021449;28;20204;-63
2023/04/14 14:24:02;;;;;;;3.33;0.95;;;;;;;;;;5023976;28;20200;-62
2023/04/14 14:26:29;;;;;;;3.17;1.23;;;;;;;;;;5031159;28;20204;-62
2023/04/14 14:28:56;;;;;;;1.35;0.77;;;;;;;;;;5028524;28;20232;-62
2023/04/14 14:31:24;;;;;;;2.17;0.90;;;;;;;;;;5024090;28;20203;-64
2023/04/14 14:33:51;;;;;;;2.38;1.05;;;;;;;;;;5029997;28;20192;-63
2023/04/14 14:36:18;;;;;;;1.60;1.20;;;;;;;;;;5030639;28;20222;-63
2023/04/14 14:38:46;;;;;;;8.45;1.88;;;;;;;;;;5021983;28;20227;-63
2023/04/14 14:41:14;;;;;;;2.05;1.33;;;;;;;;;;5024867;28;20200;-62
2023/04/14 14:43:41;;;;;;;1.83;0.90;;;;;;;;;;5018551;28;20217;-63
2023/04/14 14:46:08;;;;;;;1.67;1.05;;;;;;;;;;5011012;28;20212;-63
2023/04/14 14:48:35;;;;;;;0.98;0.98;;;;;;;;;;5015875;28;20212;-63
2023/04/14 14:51:02;;;;;;;1.30;1.00;;;;;;;;;;5009733;28;20234;-63